Airfield :
LOGIN :

Register | Disclaimer

   EN    FR    IT 

 










Legend :    VFR   Marginal VFR   IFR   Intensive IFR   Very Intensive IFR
Visi :
Ceiling :
>= 8 km
>= 3000ft
5 to 8 km
1000 to 3000 ft
1500m to 5 km
500 to 1000 ft
800 to 1500m
200 to 500 ft
< 800m
< 200 ft
Symbols :   Thunderstorms  Fog  Heavy snow  Heavy precipitations  Wind > 20 kt
SIGMETs :     Misc.  Thunderstorms  Icing  Turbulence  Mountain Waves  Volcanic Ashes






- Airport Elevation : 443 ft
- IATA code : SQQ


EYSA - Siauliai

CURRENT METAR :
  • 291220Z 29009KT CAVOK 24/21 Q1017 NOSIG

EXPIRED METARs :
  • 291150Z 19004KT 9999 FEW040 BKN092 25/19 Q1018 NOSIG
  • 291120Z 21004KT 180V250 CAVOK 25/19 Q1017 TEMPO SHRA SCT045CB
  • 291050Z 20006KT 170V230 CAVOK 25/19 Q1017 TEMPO SHRA SCT045CB
  • 291020Z 16006KT CAVOK 26/20 Q1017 TEMPO SHRA SCT045CB
  • 290950Z 17007KT CAVOK 26/19 Q1017 NOSIG

TAF TAF EYSA
Valid from the 29 at 12:00 until the 29 at 21:00 UTC


291110Z 2912/2921 VRB05KT 9000 SCT035
TEMPO 2912/2919 3000 TSRA BKN025CB



MET'MAP, your aeronautical weather chart ! - Copyright ORBIFLY December 2007 - Disclaimer

ORBIFLY MET'MAP TEAM :

Programming & Development : Alexandra Zaïnal
Original concept : Baudouin d'Aumeries
Technical & hardware support : Manuel Goepfert
Assistance : Marc-Olivier Méhu




SOURCES & CREDITS :

   NOAA